Create Custom Reports and Graphics: Custom Report

Modesto Jr College

Current Conditions

5/8/21 2:15 PM (-07:00)
Updated Every 15 Minutes
Temp 78.5 °F   5.5
RH 20 %   21
Dew Pt 34.6 °F   13.8
Wind Spd 10.5 mph
Wind Dir WNW | 298 °
Wind Gust 19.3 mph   2.2
Latest Rain 0.00 In
Daily Rain 0.00 In
Daily Min Temp 56.7 °F   11.2
Daily Max Temp 79.0 °F   5.2

Last 24 Hours

Modesto Jr College

15 Minute Data | America/Los_Angeles
as of 5/8/21 2:25 PM PDT
Date & Time Temp (°F) RH (%) Dew Pt (°F) Wind Spd (mph) Wind Dir (°) Wind Gust (mph) Latest Rain (In) Daily Rain (In) Daily Min Temp (°F) Daily Max Temp (°F)
5/8/21 - 1415 78.5 20 34.6 10.5 WNW | 298 19.3 0.00 0.00 56.7 79.0
5/8/21 - 1400 78.4 22 36.2 9.4 NW | 311 17.8 0.00 0.00 56.7 78.9
5/8/21 - 1345 77.9 23 36.8 9.9 NW | 315 19.3 0.00 0.00 56.7 78.6
5/8/21 - 1330 77.3 23 36.1 10.3 NW | 305 20.6 0.00 0.00 56.7 78.0
5/8/21 - 1315 76.8 22 35.4 10.9 WNW | 297 18.2 0.00 0.00 56.7 77.1
5/8/21 - 1300 76.4 24 37.2 10.2 WNW | 288 18.8 0.00 0.00 56.7 76.9
5/8/21 - 1245 75.1 25 36.8 9.3 WNW | 299 18.0 0.00 0.00 56.7 75.8
5/8/21 - 1230 74.3 25 36.6 10.8 NW | 316 17.8 0.00 0.00 56.7 74.7
5/8/21 - 1215 74.2 26 37.6 8.6 NW | 311 15.8 0.00 0.00 56.7 74.6
5/8/21 - 1200 73.5 26 36.6 8.7 NW | 310 16.9 0.00 0.00 56.7 74.3
5/8/21 - 1145 72.7 27 37.2 8.5 NW | 319 17.1 0.00 0.00 56.7 73.3
5/8/21 - 1130 71.8 27 36.1 9.2 NW | 308 18.6 0.00 0.00 56.7 72.3
5/8/21 - 1115 71.2 27 35.2 9.6 WNW | 296 18.6 0.00 0.00 56.7 72.1
5/8/21 - 1100 70.3 28 36.1 9.8 NW | 313 16.4 0.00 0.00 56.7 70.8
5/8/21 - 1045 69.9 28 35.6 9.5 NW | 308 17.8 0.00 0.00 56.7 70.7
5/8/21 - 1030 69.2 28 34.7 10.0 NW | 304 18.4 0.00 0.00 56.7 69.7
5/8/21 - 1015 68.5 29 35.3 8.8 NW | 309 15.8 0.00 0.00 56.7 69.3
5/8/21 - 1000 67.6 30 34.8 8.5 NW | 308 15.8 0.00 0.00 56.7 68.4
5/8/21 - 0945 66.5 29 33.7 11.8 NW | 318 21.0 0.00 0.00 56.7 67.2
5/8/21 - 0930 66.4 28 32.7 11.5 WNW | 300 22.1 0.00 0.00 56.7 67.2
5/8/21 - 0915 65.3 29 32.6 12.0 NW | 314 21.5 0.00 0.00 56.7 65.9
5/8/21 - 0900 64.9 30 32.6 10.5 NW | 311 21.3 0.00 0.00 56.7 65.2
5/8/21 - 0845 64.3 31 32.8 9.9 NW | 306 17.3 0.00 0.00 56.7 64.8
5/8/21 - 0830 63.7 32 33.0 9.2 WNW | 297 17.3 0.00 0.00 56.7 64.5
5/8/21 - 0815 62.9 33 33.6 8.2 WNW | 290 17.1 0.00 0.00 56.7 63.4
5/8/21 - 0800 62.0 34 33.5 8.1 WNW | 293 13.8 0.00 0.00 56.7 62.6
5/8/21 - 0745 61.3 35 33.3 7.3 WNW | 293 12.7 0.00 0.00 56.7 61.6
5/8/21 - 0730 60.5 34 32.2 7.4 WNW | 295 12.3 0.00 0.00 56.7 61.3
5/8/21 - 0715 60.0 34 31.6 7.5 WNW | 298 13.4 0.00 0.00 56.7 61.3
5/8/21 - 0700 59.2 34 31.0 6.9 WNW | 292 12.9 0.00 0.00 56.7 61.3
5/8/21 - 0645 57.9 36 31.2 6.4 WNW | 288 12.5 0.00 0.00 56.7 61.3
5/8/21 - 0630 57.4 37 31.3 6.8 WNW | 292 12.3 0.00 0.00 56.7 61.3
5/8/21 - 0615 57.7 36 31.0 6.9 WNW | 292 12.7 0.00 0.00 56.7 61.3
5/8/21 - 0600 57.9 36 31.2 7.9 WNW | 295 14.7 0.00 0.00 56.7 61.3
5/8/21 - 0545 58.0 38 32.4 8.1 WNW | 292 14.9 0.00 0.00 56.7 61.3
5/8/21 - 0530 58.3 38 32.9 8.6 WNW | 292 13.8 0.00 0.00 56.7 61.3
5/8/21 - 0515 58.5 39 33.5 7.5 WNW | 294 14.0 0.00 0.00 56.7 61.3
5/8/21 - 0500 59.0 39 34.1 7.8 WNW | 293 13.2 0.00 0.00 56.7 61.3
5/8/21 - 0445 59.1 40 34.7 8.2 WNW | 297 16.4 0.00 0.00 56.7 61.3
5/8/21 - 0430 59.1 41 35.6 7.9 WNW | 293 14.0 0.00 0.00 56.7 61.3
5/8/21 - 0415 59.5 40 35.4 8.2 WNW | 295 14.0 0.00 0.00 56.7 61.3
5/8/21 - 0400 59.5 40 35.3 7.8 WNW | 297 15.8 0.00 0.00 56.7 61.3
5/8/21 - 0345 59.2 42 36.1 7.1 WNW | 292 14.2 0.00 0.00 56.7 61.3
5/8/21 - 0330 59.2 43 36.6 6.9 WNW | 287 11.6 0.00 0.00 56.7 61.3
5/8/21 - 0315 59.9 41 35.9 6.9 WNW | 288 14.5 0.00 0.00 56.7 61.3
5/8/21 - 0300 60.0 41 36.2 7.3 WNW | 291 12.5 0.00 0.00 56.7 61.3
5/8/21 - 0245 60.0 42 37.1 6.6 WNW | 298 11.6 0.00 0.00 56.7 61.3
5/8/21 - 0230 60.0 43 37.3 6.4 WNW | 297 12.1 0.00 0.00 56.7 61.3
5/8/21 - 0215 58.2 49 39.3 5.5 WNW | 300 12.9 0.00 0.00 56.7 61.3
5/8/21 - 0200 57.1 56 41.5 3.3 WNW | 293 6.4 0.00 0.00 56.7 61.3
5/8/21 - 0145 57.1 60 43.3 2.7 NW | 312 4.6 0.00 0.00 56.7 61.3
5/8/21 - 0130 59.0 56 43.4 3.3 N | 1 5.0 0.00 0.00 57.3 61.3
5/8/21 - 0115 61.0 48 41.2 4.6 NNW | 336 8.6 0.00 0.00 60.5 61.3
5/8/21 - 0100 60.7 49 41.6 4.2 NNW | 340 7.5 0.00 0.00 45.5 77.3
5/8/21 - 0045 60.9 49 41.5 4.0 NW | 324 6.6 0.00 0.00 45.5 77.3
5/8/21 - 0030 60.4 50 41.7 3.5 NNW | 334 7.9 0.00 0.00 45.5 77.3
5/8/21 - 0015 60.4 49 41.4 3.9 WNW | 293 9.0 0.00 0.00 45.5 77.3
5/8/21 - 0000 60.0 52 42.2 3.4 WNW | 303 7.2 0.00 0.00 45.5 77.3
5/7/21 - 2345 59.6 55 43.2 2.9 WNW | 293 5.0 0.00 0.00 45.5 77.3
5/7/21 - 2330 59.8 56 44.0 2.5 WNW | 283 4.6 0.00 0.00 45.5 77.3
5/7/21 - 2315 60.2 55 44.1 3.1 WNW | 284 5.0 0.00 0.00 45.5 77.3
5/7/21 - 2300 60.8 55 44.7 3.0 WNW | 291 5.0 0.00 0.00 45.5 77.3
5/7/21 - 2245 61.2 55 45.1 3.2 WNW | 292 5.9 0.00 0.00 45.5 77.3
5/7/21 - 2230 61.8 54 45.0 3.4 WNW | 300 5.7 0.00 0.00 45.5 77.3
5/7/21 - 2215 62.1 54 45.3 3.9 WNW | 295 7.0 0.00 0.00 45.5 77.3
5/7/21 - 2200 62.8 54 46.1 3.5 WNW | 297 5.5 0.00 0.00 45.5 77.3
5/7/21 - 2145 64.1 51 45.6 4.4 WNW | 294 7.2 0.00 0.00 45.5 77.3
5/7/21 - 2130 64.8 50 45.6 4.9 WNW | 298 7.9 0.00 0.00 45.5 77.3
5/7/21 - 2115 65.6 49 46.1 3.8 WNW | 286 6.6 0.00 0.00 45.5 77.3
5/7/21 - 2100 66.7 47 45.9 4.5 WNW | 296 10.1 0.00 0.00 45.5 77.3
5/7/21 - 2045 67.3 47 46.2 4.7 WNW | 300 10.1 0.00 0.00 45.5 77.3
5/7/21 - 2030 68.2 46 46.5 4.8 WNW | 288 8.6 0.00 0.00 45.5 77.3
5/7/21 - 2015 69.1 45 46.9 4.9 WNW | 288 8.6 0.00 0.00 45.5 77.3
5/7/21 - 2000 70.5 43 47.1 4.4 WNW | 285 8.3 0.00 0.00 45.5 77.3
5/7/21 - 1945 72.2 40 46.7 5.5 WNW | 284 10.7 0.00 0.00 45.5 77.3
5/7/21 - 1930 73.8 38 46.5 6.1 WNW | 285 13.4 0.00 0.00 45.5 77.3
5/7/21 - 1915 74.5 37 46.7 4.9 WNW | 301 10.3 0.00 0.00 45.5 77.3
5/7/21 - 1900 75.0 36 46.1 7.1 NW | 308 15.1 0.00 0.00 45.5 77.3
5/7/21 - 1845 75.2 36 46.4 7.5 NW | 304 13.8 0.00 0.00 45.5 77.3
5/7/21 - 1830 75.5 36 47.0 8.1 NW | 313 14.7 0.00 0.00 45.5 77.3
5/7/21 - 1815 76.2 35 46.7 8.7 WNW | 300 15.6 0.00 0.00 45.5 77.3
5/7/21 - 1800 76.4 35 47.1 7.8 WNW | 295 13.8 0.00 0.00 45.5 77.3
5/7/21 - 1745 76.4 36 47.5 7.9 WNW | 299 14.0 0.00 0.00 45.5 77.3
5/7/21 - 1730 76.4 35 47.1 8.8 NW | 311 18.2 0.00 0.00 45.5 77.3
5/7/21 - 1715 76.7 36 47.9 7.0 NW | 307 12.5 0.00 0.00 45.5 77.3
5/7/21 - 1700 76.8 36 47.8 6.9 NW | 312 14.2 0.00 0.00 45.5 77.3
5/7/21 - 1645 76.4 35 46.8 7.7 NW | 311 17.1 0.00 0.00 45.5 77.2
5/7/21 - 1630 76.0 36 47.0 8.2 NW | 321 15.1 0.00 0.00 45.5 77.2
5/7/21 - 1615 76.5 36 47.8 8.1 NW | 310 19.1 0.00 0.00 45.5 77.2
5/7/21 - 1600 76.1 38 48.4 7.7 NW | 310 14.5 0.00 0.00 45.5 76.7
5/7/21 - 1545 75.9 37 47.9 7.9 WNW | 282 17.1 0.00 0.00 45.5 76.3
5/7/21 - 1530 75.6 38 48.2 6.1 NW | 312 13.2 0.00 0.00 45.5 76.0
5/7/21 - 1515 75.3 38 48.3 7.0 WNW | 294 15.1 0.00 0.00 45.5 75.9
5/7/21 - 1500 74.5 39 48.0 7.1 NW | 308 16.0 0.00 0.00 45.5 75.0
5/7/21 - 1445 74.3 38 47.3 8.7 WNW | 286 16.7 0.00 0.00 45.5 74.9
5/7/21 - 1430 73.7 39 47.4 8.9 WNW | 283 18.8 0.00 0.00 45.5 74.2
5/7/21 - 1415 73.1 42 48.5 9.1 WNW | 288 17.1 0.00 0.00 45.5 73.8
Max 78.5 60 48.5 12.0 - 22.1 0.00 0.00 60.5 79.0
Avg 66.9 39 40.1 7.1 - 13.4 0.00 - - -
Min 57.1 20 31.0 2.5 - 4.6 0.00 0.00 45.5 61.3
Total - - - - - - 0.00 - - -

Last 7 Days

Modesto Jr College

Daily Data | America/Los_Angeles
as of 5/8/21 2:25 PM PDT
Date Daily ETo (in)
5/7/21 0.207
5/6/21 0.254
5/5/21 0.222
5/4/21 0.235
5/3/21 0.266
5/2/21 0.260
5/1/21 0.222
Max 0.266
Min 0.207